Time;durP1;ratioP1;P1;durP2;ratioP2;P2;SDS_P1;SDS_P2;PMS_P1;PMS_P2;Temp;Humidity;BMP_temperature;BMP_pressure;BME280_temperature;BME280_humidity;BME280_pressure;Samples;Min_cycle;Max_cycle;Signal;HPM_P1;HPM_P2
2022/03/27 00:01:07;;;;;;;11.05;5.97;;;10.00;31.50;;;;;;2259358;56;20956;-63
2022/03/27 00:03:33;;;;;;;12.45;6.03;;;9.90;32.40;;;;;;2259764;55;20969;-63
2022/03/27 00:06:00;;;;;;;11.60;6.12;;;9.90;32.50;;;;;;2336992;55;20946;-62
2022/03/27 00:08:26;;;;;;;11.55;6.47;;;9.80;32.50;;;;;;2476240;55;21462;-62
2022/03/27 00:13:37;;;;;;;11.05;5.15;;;9.80;32.70;;;;;;2264077;55;20984;-64
2022/03/27 00:16:05;;;;;;;11.75;5.28;;;9.70;32.60;;;;;;2249366;56;21127;-63
2022/03/27 00:18:31;;;;;;;11.27;5.28;;;9.70;32.70;;;;;;2258252;56;20960;-62
2022/03/27 00:20:58;;;;;;;8.68;5.18;;;9.60;32.70;;;;;;2259226;56;21047;-63
2022/03/27 00:23:25;;;;;;;9.77;5.20;;;9.60;33.50;;;;;;2487573;55;21068;-62
2022/03/27 00:25:51;;;;;;;7.72;4.43;;;9.50;32.90;;;;;;2480781;55;20975;-63
2022/03/27 00:28:18;;;;;;;9.07;4.82;;;9.50;33.00;;;;;;2284031;56;20952;-62
2022/03/27 00:30:45;;;;;;;9.40;4.32;;;9.40;33.00;;;;;;2410759;56;21038;-63
2022/03/27 00:33:11;;;;;;;10.15;5.40;;;9.40;33.10;;;;;;2247893;57;21012;-62
2022/03/27 00:35:37;;;;;;;9.27;4.43;;;9.40;33.10;;;;;;2258466;56;20929;-62
2022/03/27 00:38:04;;;;;;;8.38;4.45;;;9.30;33.10;;;;;;2259478;56;21012;-63
2022/03/27 00:40:32;;;;;;;10.60;4.82;;;9.30;33.10;;;;;;2259211;56;20941;-63
2022/03/27 00:42:58;;;;;;;8.93;4.30;;;9.20;33.10;;;;;;2259147;57;21566;-64
2022/03/27 00:45:24;;;;;;;10.73;4.57;;;9.20;33.30;;;;;;2487096;55;21459;-63
2022/03/27 00:47:51;;;;;;;9.45;4.45;;;9.20;33.30;;;;;;2259303;56;20953;-63
2022/03/27 00:50:17;;;;;;;8.82;4.30;;;9.10;33.30;;;;;;2487739;55;21689;-63
2022/03/27 00:52:43;;;;;;;8.55;4.30;;;9.00;33.30;;;;;;2487189;55;20948;-62
2022/03/27 00:55:09;;;;;;;8.57;4.47;;;9.00;33.40;;;;;;2258902;56;20960;-62
2022/03/27 00:57:35;;;;;;;11.02;4.80;;;9.00;33.60;;;;;;2259503;56;20937;-63
2022/03/27 01:00:02;;;;;;;10.25;5.03;;;8.90;33.60;;;;;;2259757;56;20964;-63
2022/03/27 01:02:29;;;;;;;8.30;4.22;;;8.90;34.30;;;;;;2258374;56;21497;-63
2022/03/27 01:04:55;;;;;;;9.95;4.47;;;8.90;33.80;;;;;;2259245;56;20973;-63
2022/03/27 01:07:22;;;;;;;8.00;4.53;;;8.80;33.80;;;;;;2259202;56;20969;-63
2022/03/27 01:09:48;;;;;;;8.18;3.90;;;8.80;33.90;;;;;;2259421;56;21013;-63
2022/03/27 01:12:36;;;;;;;11.52;5.03;;;8.70;33.90;;;;;;2258671;59;21141;-62
2022/03/27 01:15:04;;;;;;;8.18;3.62;;;8.70;34.40;;;;;;2256006;59;21589;-63
2022/03/27 01:17:30;;;;;;;7.65;3.50;;;8.70;34.00;;;;;;2242860;56;21565;-63
2022/03/27 01:19:56;;;;;;;7.05;3.87;;;8.60;34.00;;;;;;2300534;55;20984;-63
2022/03/27 01:22:23;;;;;;;7.20;3.78;;;8.60;34.00;;;;;;2253305;56;21746;-62
2022/03/27 01:24:50;;;;;;;8.18;4.18;;;8.50;33.90;;;;;;2345282;55;21186;-63
2022/03/27 01:27:16;;;;;;;9.23;4.37;;;8.50;34.00;;;;;;2256924;55;21478;-63
2022/03/27 01:29:43;;;;;;;8.00;3.90;;;8.50;34.00;;;;;;2257102;56;20976;-62
2022/03/27 01:32:14;;;;;;;7.40;3.53;;;8.50;34.10;;;;;;2256199;56;20957;-62
2022/03/27 01:34:44;;;;;;;8.18;3.78;;;8.40;34.10;;;;;;2254894;56;21055;-62
2022/03/27 01:37:10;;;;;;;6.87;3.30;;;8.40;34.10;;;;;;2250113;56;20939;-64
2022/03/27 01:39:37;;;;;;;8.18;4.05;;;8.30;34.10;;;;;;2331363;56;20950;-63
2022/03/27 01:42:05;;;;;;;10.65;4.05;;;8.30;34.20;;;;;;2256889;56;20954;-63
2022/03/27 01:44:31;;;;;;;9.85;4.43;;;8.20;34.20;;;;;;2256958;56;20932;-63
2022/03/27 01:46:57;;;;;;;10.57;4.10;;;8.20;34.30;;;;;;2256736;56;21048;-63
2022/03/27 01:49:26;;;;;;;12.27;4.57;;;8.10;34.30;;;;;;2483515;55;21001;-62
2022/03/27 01:51:53;;;;;;;8.27;4.18;;;8.10;34.40;;;;;;2404904;56;21005;-63
2022/03/27 01:54:19;;;;;;;9.50;4.07;;;8.10;34.50;;;;;;2254464;56;20999;-63
2022/03/27 01:56:45;;;;;;;8.90;4.00;;;8.00;34.40;;;;;;2239959;56;21020;-62
2022/03/27 01:59:11;;;;;;;6.87;3.55;;;7.90;34.50;;;;;;2254932;56;20965;-62
2022/03/27 02:01:38;;;;;;;7.80;3.40;;;7.90;34.50;;;;;;2213181;57;21441;-63
2022/03/27 02:04:06;;;;;;;8.45;3.95;;;7.90;34.60;;;;;;2483382;55;21001;-62
2022/03/27 02:06:34;;;;;;;9.70;4.10;;;7.90;34.60;;;;;;2256680;56;21008;-63
2022/03/27 02:09:24;;;;;;;8.00;3.58;;;7.80;34.60;;;;;;2256740;55;21036;-62
2022/03/27 02:11:50;;;;;;;8.60;4.28;;;7.70;35.00;;;;;;2256589;55;21016;-63
2022/03/27 02:14:23;;;;;;;7.22;3.65;;;7.70;34.60;;;;;;2484283;55;21001;-63
2022/03/27 02:16:49;;;;;;;;;;;7.60;34.80;;;;;;2259646;55;20976;-62
2022/03/27 02:19:16;;;;;;;9.65;3.65;;;7.60;35.20;;;;;;2258083;55;20082;-63
2022/03/27 02:21:42;;;;;;;9.57;3.78;;;7.60;34.40;;;;;;2251056;56;21033;-63
2022/03/27 02:24:09;;;;;;;8.38;3.58;;;7.50;34.50;;;;;;2255767;56;20953;-63
2022/03/27 02:26:35;;;;;;;9.75;4.12;;;7.50;35.20;;;;;;2356462;55;20961;-62
2022/03/27 02:29:20;;;;;;;9.82;3.75;;;7.40;34.60;;;;;;2477668;55;20977;-61
2022/03/27 02:31:46;;;;;;;10.50;4.68;;;7.40;35.10;;;;;;2260156;56;21441;-63
2022/03/27 02:34:12;;;;;;;12.80;4.80;;;7.30;34.80;;;;;;2254805;56;20995;-62
2022/03/27 02:36:38;;;;;;;10.13;4.68;;;7.30;34.90;;;;;;2480291;55;20952;-62
2022/03/27 02:39:05;;;;;;;9.60;4.37;;;7.20;34.90;;;;;;2256994;56;20984;-63
2022/03/27 02:41:31;;;;;;;8.70;4.03;;;7.20;35.00;;;;;;2249358;56;20970;-62
2022/03/27 02:43:58;;;;;;;11.10;4.82;;;7.10;35.00;;;;;;2233546;56;20947;-63
2022/03/27 02:46:24;;;;;;;8.95;4.32;;;7.10;35.10;;;;;;2261118;56;21084;-62
2022/03/27 02:48:50;;;;;;;10.13;3.95;;;7.00;35.10;;;;;;2252310;56;20990;-61
2022/03/27 02:51:18;;;;;;;8.75;3.95;;;7.00;35.10;;;;;;2256997;57;21017;-62
2022/03/27 02:54:24;;;;;;;8.80;4.50;;;6.90;35.10;;;;;;2248907;56;21015;-63
2022/03/27 02:56:50;;;;;;;9.10;3.90;;;6.90;35.70;;;;;;2267400;56;20963;-63
2022/03/27 02:59:16;;;;;;;10.88;3.53;;;6.90;35.30;;;;;;2448529;55;20979;-63
2022/03/27 03:01:43;;;;;;;10.52;4.70;;;6.80;35.40;;;;;;2247112;57;20955;-62
2022/03/27 03:04:10;;;;;;;7.25;3.67;;;6.80;35.40;;;;;;2258132;56;20993;-63
2022/03/27 03:06:36;;;;;;;8.43;3.42;;;6.80;35.60;;;;;;2262288;56;21017;-62
2022/03/27 03:09:02;;;;;;;6.97;3.20;;;6.70;35.50;;;;;;2231991;56;20953;-62
2022/03/27 03:11:29;;;;;;;9.95;4.03;;;6.70;35.60;;;;;;2256924;57;21927;-63
2022/03/27 03:13:56;;;;;;;8.45;3.80;;;6.60;35.60;;;;;;2257094;56;21681;-62
2022/03/27 03:16:34;;;;;;;7.28;3.65;;;6.60;35.70;;;;;;2256949;56;21000;-62
2022/03/27 03:19:00;;;;;;;9.65;3.65;;;6.60;35.70;;;;;;2483790;55;21013;-63
2022/03/27 03:21:27;;;;;;;7.50;3.45;;;6.50;35.70;;;;;;2256792;56;21525;-63
2022/03/27 03:23:53;;;;;;;9.05;3.22;;;6.50;35.90;;;;;;2256187;56;21006;-63
2022/03/27 03:26:19;;;;;;;7.70;3.33;;;6.50;36.00;;;;;;2256159;56;20968;-63
2022/03/27 03:28:58;;;;;;;11.60;4.22;;;6.40;36.00;;;;;;2478592;55;20992;-63
2022/03/27 03:31:39;;;;;;;8.27;3.60;;;6.40;36.40;;;;;;2239222;57;21029;-62
2022/03/27 03:34:05;;;;;;;8.80;3.72;;;6.40;36.50;;;;;;2255174;56;20957;-63
2022/03/27 03:36:34;;;;;;;7.15;3.40;;;6.40;36.20;;;;;;2246984;56;21538;-63
2022/03/27 03:39:01;;;;;;;8.20;2.92;;;6.30;36.20;;;;;;2220382;56;20988;-63
2022/03/27 03:41:30;;;;;;;7.37;3.30;;;6.30;36.40;;;;;;2249249;56;21004;-62
2022/03/27 03:44:09;;;;;;;10.05;3.40;;;6.30;36.50;;;;;;2258933;56;21502;-62
2022/03/27 03:46:37;;;;;;;7.37;3.30;;;6.30;36.60;;;;;;2259977;56;21485;-62
2022/03/27 03:49:06;;;;;;;6.10;3.10;;;6.30;36.70;;;;;;2220891;57;20975;-63
2022/03/27 03:51:34;;;;;;;7.05;3.22;;;6.20;36.60;;;;;;2478008;55;20981;-62
2022/03/27 03:54:04;;;;;;;10.98;4.40;;;6.20;36.60;;;;;;2257403;56;21040;-63
2022/03/27 03:56:30;;;;;;;10.65;4.10;;;6.20;36.60;;;;;;2256852;56;20993;-62
2022/03/27 03:58:57;;;;;;;9.95;4.47;;;6.20;36.70;;;;;;2259061;56;20989;-61
2022/03/27 04:01:31;;;;;;;12.95;4.95;;;6.20;36.80;;;;;;2241124;56;20948;-62
2022/03/27 04:03:58;;;;;;;9.35;4.50;;;6.20;36.80;;;;;;2484453;55;20956;-63
2022/03/27 04:06:28;;;;;;;11.15;4.22;;;6.20;36.80;;;;;;2255966;56;20962;-62
2022/03/27 04:08:54;;;;;;;10.13;4.30;;;6.10;36.90;;;;;;2236820;56;20973;-63
2022/03/27 04:11:21;;;;;;;9.55;3.85;;;6.10;36.90;;;;;;2256916;56;20964;-62
2022/03/27 04:13:47;;;;;;;10.40;3.72;;;6.10;36.90;;;;;;2257709;56;20956;-61
2022/03/27 04:16:13;;;;;;;10.52;4.50;;;6.00;36.80;;;;;;2257088;56;21167;-63
2022/03/27 04:18:40;;;;;;;7.70;3.37;;;6.00;36.90;;;;;;2484595;55;21043;-62
2022/03/27 04:21:06;;;;;;;11.63;3.97;;;6.00;37.00;;;;;;2337554;55;20965;-62
2022/03/27 04:23:33;;;;;;;9.73;4.43;;;6.00;37.00;;;;;;2257247;56;20932;-63
2022/03/27 04:25:59;;;;;;;9.05;3.42;;;6.00;37.10;;;;;;2257130;56;21064;-63
2022/03/27 04:28:25;;;;;;;8.23;3.80;;;5.90;37.00;;;;;;2256765;56;20940;-62
2022/03/27 04:30:52;;;;;;;9.35;3.67;;;5.90;37.20;;;;;;2257723;56;21883;-62
2022/03/27 04:33:18;;;;;;;10.05;4.35;;;5.90;37.20;;;;;;2257380;56;20997;-62
2022/03/27 04:35:44;;;;;;;9.35;4.18;;;5.90;37.40;;;;;;2484889;55;21442;-62
2022/03/27 04:38:10;;;;;;;11.12;4.15;;;5.90;37.70;;;;;;2256672;56;21001;-62
2022/03/27 04:40:37;;;;;;;7.78;4.07;;;5.90;37.70;;;;;;2258102;56;20948;-62
2022/03/27 04:43:03;;;;;;;9.30;3.92;;;5.80;37.70;;;;;;2257622;56;20980;-62
2022/03/27 04:45:29;;;;;;;8.57;3.72;;;5.80;37.70;;;;;;2263968;56;21020;-62
2022/03/27 04:47:56;;;;;;;10.98;4.37;;;5.80;37.70;;;;;;2257644;56;21000;-63
2022/03/27 04:50:23;;;;;;;8.75;4.18;;;5.80;37.80;;;;;;2257771;56;21557;-62
2022/03/27 04:52:52;;;;;;;9.43;3.90;;;5.80;38.00;;;;;;2257534;56;20953;-62
2022/03/27 04:55:18;;;;;;;9.13;3.83;;;5.80;38.10;;;;;;2485195;55;21705;-62
2022/03/27 04:57:44;;;;;;;9.50;4.15;;;5.80;38.00;;;;;;2257386;56;20936;-63
2022/03/27 05:00:14;;;;;;;8.40;4.10;;;5.80;38.00;;;;;;2257238;56;20968;-62
2022/03/27 05:02:41;;;;;;;10.77;4.05;;;5.80;38.10;;;;;;2471790;55;20941;-63
2022/03/27 05:05:11;;;;;;;10.93;4.20;;;5.70;38.00;;;;;;2258612;56;21096;-63
2022/03/27 05:07:38;;;;;;;8.85;3.50;;;5.70;38.10;;;;;;2256424;56;20965;-62
2022/03/27 05:10:05;;;;;;;9.85;3.90;;;5.70;38.10;;;;;;2257180;55;20965;-63
2022/03/27 05:12:31;;;;;;;9.07;4.20;;;5.70;38.10;;;;;;2257931;56;21023;-62
2022/03/27 05:14:58;;;;;;;9.38;3.87;;;5.70;38.00;;;;;;2257490;56;20948;-62
2022/03/27 05:17:27;;;;;;;10.93;4.32;;;5.70;38.00;;;;;;2252936;55;20954;-62
2022/03/27 05:19:56;;;;;;;10.15;3.78;;;5.70;38.00;;;;;;2263488;56;21092;-62
2022/03/27 05:22:22;;;;;;;8.70;4.50;;;5.60;37.90;;;;;;2257338;56;20964;-62
2022/03/27 05:24:48;;;;;;;9.75;4.32;;;5.60;38.00;;;;;;2257176;57;20972;-62
2022/03/27 05:27:18;;;;;;;8.75;3.83;;;5.50;38.00;;;;;;2257306;56;20973;-63
2022/03/27 05:29:44;;;;;;;9.77;4.35;;;5.50;38.10;;;;;;2258116;56;22014;-63
2022/03/27 05:32:11;;;;;;;8.85;3.70;;;5.50;38.10;;;;;;2257123;57;21799;-61
2022/03/27 05:34:37;;;;;;;7.78;4.20;;;5.50;38.20;;;;;;2256278;56;21037;-62
2022/03/27 05:37:03;;;;;;;10.05;4.25;;;5.50;38.20;;;;;;2256916;56;20949;-63
2022/03/27 05:39:30;;;;;;;9.27;3.78;;;5.50;38.30;;;;;;2254348;56;20975;-62
2022/03/27 05:41:56;;;;;;;10.15;4.00;;;5.50;38.40;;;;;;2239769;56;20954;-62
2022/03/27 05:44:22;;;;;;;6.57;3.37;;;5.50;38.50;;;;;;2256637;56;20960;-62
2022/03/27 05:46:49;;;;;;;8.73;4.10;;;5.40;38.40;;;;;;2257353;56;21045;-63
2022/03/27 05:49:19;;;;;;;9.75;4.40;;;5.40;38.40;;;;;;2258094;57;21831;-62
2022/03/27 05:51:45;;;;;;;12.50;4.90;;;5.40;38.50;;;;;;2239989;56;21014;-62
2022/03/27 05:54:11;;;;;;;11.32;4.32;;;5.40;38.50;;;;;;2263100;56;20944;-62
2022/03/27 05:56:39;;;;;;;10.30;4.90;;;5.40;38.60;;;;;;2258907;56;20967;-61
2022/03/27 05:59:06;;;;;;;9.73;4.75;;;5.40;38.80;;;;;;2237058;56;21077;-62
2022/03/27 06:01:32;;;;;;;9.82;4.18;;;5.40;38.80;;;;;;2232557;57;21556;-62
2022/03/27 06:03:59;;;;;;;12.73;5.28;;;5.50;38.90;;;;;;2249718;56;21045;-62
2022/03/27 06:06:25;;;;;;;13.45;5.37;;;5.50;39.00;;;;;;2258747;56;21063;-62
2022/03/27 06:08:57;;;;;;;10.35;4.95;;;5.50;39.10;;;;;;2329899;55;20961;-63
2022/03/27 06:11:24;;;;;;;13.77;5.70;;;5.50;39.10;;;;;;2258947;56;20965;-63
2022/03/27 06:13:50;;;;;;;9.82;4.82;;;5.50;39.20;;;;;;2259762;56;20958;-63
2022/03/27 06:16:17;;;;;;;12.02;5.95;;;5.50;39.30;;;;;;2259200;56;20944;-63
2022/03/27 06:18:43;;;;;;;8.95;4.62;;;5.60;39.50;;;;;;2258972;56;21060;-63
2022/03/27 06:21:10;;;;;;;10.85;5.68;;;5.60;39.70;;;;;;2259269;56;20968;-62
2022/03/27 06:23:36;;;;;;;10.52;5.28;;;5.60;39.70;;;;;;2258880;56;20944;-62
2022/03/27 06:26:03;;;;;;;12.30;5.47;;;5.70;39.80;;;;;;2259280;56;21711;-62
2022/03/27 06:28:29;;;;;;;14.25;5.07;;;5.70;39.90;;;;;;2258901;56;20965;-63
2022/03/27 06:30:56;;;;;;;13.93;6.50;;;5.80;40.00;;;;;;2258803;56;20949;-62
2022/03/27 06:33:22;;;;;;;10.38;4.90;;;5.80;40.10;;;;;;2258712;56;21040;-63
2022/03/27 06:35:49;;;;;;;8.57;4.62;;;5.90;40.20;;;;;;2258925;56;20937;-62
2022/03/27 06:38:17;;;;;;;10.68;5.15;;;6.00;40.30;;;;;;2259008;57;21034;-62
2022/03/27 06:40:44;;;;;;;10.90;5.22;;;6.00;40.40;;;;;;2256761;56;21005;-63
2022/03/27 06:43:13;;;;;;;11.45;5.10;;;6.10;40.70;;;;;;2257347;56;20941;-63
2022/03/27 06:45:39;;;;;;;9.93;4.57;;;6.20;41.00;;;;;;2258272;56;20953;-63
2022/03/27 06:48:06;;;;;;;10.48;4.70;;;6.40;41.20;;;;;;2258433;56;20985;-61
2022/03/27 06:50:33;;;;;;;8.27;4.00;;;6.50;41.20;;;;;;2257517;55;20957;-63
2022/03/27 06:52:59;;;;;;;10.73;4.62;;;6.60;41.30;;;;;;2258772;55;21001;-61
2022/03/27 06:55:27;;;;;;;9.75;4.40;;;6.70;41.20;;;;;;2486697;55;21064;-63
2022/03/27 06:57:54;;;;;;;9.25;4.60;;;6.90;41.40;;;;;;2258935;55;21479;-63
2022/03/27 07:03:14;;;;;;;9.70;5.28;;;7.10;41.70;;;;;;2262707;55;20944;-63
2022/03/27 07:05:41;;;;;;;9.40;4.37;;;7.30;41.50;;;;;;2487117;55;21561;-63
2022/03/27 07:08:14;;;;;;;9.20;4.22;;;7.40;41.50;;;;;;2259164;55;21128;-63
2022/03/27 07:10:41;;;;;;;9.57;4.90;;;7.50;41.50;;;;;;2259190;55;22454;-63
2022/03/27 07:13:09;;;;;;;10.85;4.68;;;7.70;41.60;;;;;;2358940;55;21496;-63
2022/03/27 07:15:49;;;;;;;10.77;4.87;;;7.80;41.70;;;;;;2258613;55;21004;-63
2022/03/27 07:18:17;;;;;;;8.60;4.70;;;8.00;42.10;;;;;;2259011;55;21016;-64
2022/03/27 07:20:44;;;;;;;10.35;4.80;;;8.10;41.80;;;;;;2259206;55;21016;-63
2022/03/27 07:23:13;;;;;;;9.02;4.25;;;8.30;41.90;;;;;;2258426;56;20996;-63
2022/03/27 07:25:42;;;;;;;10.90;4.93;;;8.40;41.90;;;;;;2261849;55;21562;-63
2022/03/27 07:28:09;;;;;;;12.40;5.05;;;8.60;41.90;;;;;;2259343;55;21498;-63
2022/03/27 07:30:36;;;;;;;11.85;4.40;;;8.70;41.90;;;;;;2262365;56;20967;-63
2022/03/27 07:33:02;;;;;;;10.98;5.35;;;8.90;42.00;;;;;;2258724;55;20944;-64
2022/03/27 07:35:30;;;;;;;8.82;4.97;;;9.00;42.00;;;;;;2258722;55;20944;-63
2022/03/27 07:37:56;;;;;;;11.05;5.15;;;9.20;42.00;;;;;;2258282;56;20977;-64
2022/03/27 07:40:23;;;;;;;13.40;5.00;;;9.40;42.10;;;;;;2486674;55;20936;-63
2022/03/27 07:42:50;;;;;;;10.07;5.18;;;9.60;42.20;;;;;;2259145;56;20969;-63
2022/03/27 07:45:18;;;;;;;13.93;5.60;;;9.70;42.00;;;;;;2367670;55;20937;-64
2022/03/27 07:47:47;;;;;;;13.30;5.75;;;9.90;42.00;;;;;;2486482;55;20949;-64
2022/03/27 07:50:14;;;;;;;12.05;4.90;;;10.10;41.20;;;;;;2259322;56;21031;-64
2022/03/27 07:52:40;;;;;;;14.98;5.15;;;10.30;41.20;;;;;;2250208;56;21876;-63
2022/03/27 07:55:07;;;;;;;10.88;5.18;;;10.50;41.20;;;;;;2240001;56;20981;-64
2022/03/27 07:57:33;;;;;;;11.57;5.47;;;10.70;41.40;;;;;;2258820;55;20964;-64
2022/03/27 07:59:59;;;;;;;12.15;5.53;;;10.90;41.50;;;;;;2258652;56;20945;-63
2022/03/27 08:02:26;;;;;;;13.02;5.57;;;11.20;41.80;;;;;;2262688;55;20928;-63
2022/03/27 08:04:53;;;;;;;13.07;6.18;;;11.40;41.90;;;;;;2259497;56;20990;-65
2022/03/27 08:07:20;;;;;;;10.75;5.87;;;11.70;42.10;;;;;;2251246;56;21843;-64
2022/03/27 08:09:47;;;;;;;14.13;6.25;;;12.10;42.40;;;;;;2258341;56;20980;-64
2022/03/27 08:12:13;;;;;;;14.80;6.55;;;12.50;42.50;;;;;;2484625;55;20973;-66
2022/03/27 08:14:40;;;;;;;11.98;6.07;;;12.90;42.60;;;;;;2257634;56;20945;-65
2022/03/27 08:17:06;;;;;;;11.85;6.03;;;13.30;42.70;;;;;;2467274;55;21386;-64
2022/03/27 08:19:33;;;;;;;9.60;5.25;;;13.70;43.00;;;;;;2258254;56;21020;-64
2022/03/27 08:22:00;;;;;;;14.35;6.43;;;14.20;43.30;;;;;;2251501;55;20987;-65
2022/03/27 08:24:26;;;;;;;10.80;5.72;;;14.60;43.10;;;;;;2249646;56;21097;-63
2022/03/27 08:27:02;;;;;;;10.70;5.05;;;15.10;43.00;;;;;;2237055;56;20962;-64
2022/03/27 08:29:39;;;;;;;11.15;5.53;;;15.60;43.10;;;;;;2241955;56;20949;-63
2022/03/27 08:32:08;;;;;;;9.70;5.10;;;16.20;43.00;;;;;;2231725;57;20971;-65
2022/03/27 08:34:36;;;;;;;9.50;4.93;;;16.60;42.60;;;;;;2257668;56;21603;-64
2022/03/27 08:37:04;;;;;;;9.32;5.20;;;17.00;42.00;;;;;;2259131;56;21029;-63
2022/03/27 08:39:30;;;;;;;13.68;5.40;;;17.50;41.70;;;;;;2258156;56;20993;-66
2022/03/27 08:41:56;;;;;;;10.20;5.18;;;17.80;41.30;;;;;;2259120;56;21000;-64
2022/03/27 08:44:26;;;;;;;9.88;5.18;;;18.20;41.00;;;;;;2486230;55;21020;-64
2022/03/27 08:46:53;;;;;;;9.85;5.45;;;18.60;40.70;;;;;;2234745;56;21524;-65
2022/03/27 08:51:06;;;;;;;9.57;5.20;;;18.90;40.50;;;;;;2253235;55;20972;-66
2022/03/27 08:53:51;;;;;;;9.00;4.93;;;19.40;39.80;;;;;;2432294;55;21023;-66
2022/03/27 08:56:23;;;;;;;8.90;5.20;;;19.70;39.30;;;;;;2257981;55;21040;-65
2022/03/27 08:58:49;;;;;;;10.00;5.12;;;19.90;38.70;;;;;;2257930;56;21020;-65
2022/03/27 09:01:17;;;;;;;9.52;4.68;;;20.10;38.70;;;;;;2259011;56;21325;-64
2022/03/27 09:03:44;;;;;;;9.15;5.00;;;20.40;38.70;;;;;;2259021;56;20993;-65
2022/03/27 09:06:10;;;;;;;9.57;4.68;;;20.70;38.80;;;;;;2259015;56;20963;-65
2022/03/27 09:08:37;;;;;;;8.35;4.90;;;21.00;38.60;;;;;;2258814;56;20952;-64
2022/03/27 09:11:03;;;;;;;9.55;4.50;;;21.30;38.40;;;;;;2259279;56;20968;-65
2022/03/27 09:13:30;;;;;;;12.05;5.22;;;21.60;38.50;;;;;;2250234;56;21033;-66
2022/03/27 09:16:04;;;;;;;8.32;4.62;;;21.90;38.00;;;;;;2258922;55;20941;-64
2022/03/27 09:18:56;;;;;;;10.05;5.30;;;22.30;37.20;;;;;;2238846;56;21012;-64
2022/03/27 09:21:23;;;;;;;9.60;5.45;;;22.60;36.50;;;;;;2258803;56;20941;-65
2022/03/27 09:24:08;;;;;;;10.02;5.47;;;22.80;36.40;;;;;;2263259;56;21016;-64
2022/03/27 09:26:36;;;;;;;11.38;5.95;;;23.00;35.70;;;;;;2259279;57;20953;-65
2022/03/27 09:29:08;;;;;;;11.55;6.05;;;23.20;35.30;;;;;;2259047;56;20992;-66
2022/03/27 09:31:34;;;;;;;11.98;5.32;;;23.30;34.80;;;;;;2259511;56;21009;-65
2022/03/27 09:34:01;;;;;;;9.98;5.37;;;23.40;34.80;;;;;;2259188;56;21036;-66
2022/03/27 09:36:46;;;;;;;10.40;5.60;;;23.60;34.60;;;;;;2257763;56;21716;-65
2022/03/27 09:39:20;;;;;;;10.70;5.97;;;23.70;34.30;;;;;;2378626;55;20977;-65
2022/03/27 09:42:03;;;;;;;13.15;5.28;;;23.90;33.80;;;;;;2323159;55;20968;-65
2022/03/27 09:44:34;;;;;;;9.68;5.87;;;24.00;33.50;;;;;;2258372;56;20972;-65
2022/03/27 09:47:05;;;;;;;9.50;6.05;;;24.10;33.40;;;;;;2234301;57;21394;-65
2022/03/27 09:50:36;;;;;;;11.60;6.30;;;24.20;33.20;;;;;;2242847;56;21016;-65
2022/03/27 09:53:26;;;;;;;14.15;6.12;;;24.30;32.30;;;;;;2259353;56;21028;-68
2022/03/27 09:56:15;;;;;;;11.23;6.28;;;24.40;31.60;;;;;;2262646;55;20958;-66
2022/03/27 09:58:45;;;;;;;10.38;5.82;;;24.40;31.10;;;;;;2258967;56;20971;-72
2022/03/27 10:01:30;;;;;;;10.30;5.97;;;24.40;31.20;;;;;;2257919;55;21020;-67
2022/03/27 10:03:58;;;;;;;11.52;6.68;;;24.40;30.80;;;;;;2262153;55;21001;-65
2022/03/27 10:06:35;;;;;;;9.88;5.97;;;24.30;30.70;;;;;;2262653;55;21069;-65
2022/03/27 10:09:02;;;;;;;13.73;7.18;;;24.20;30.00;;;;;;2258476;55;20976;-65
2022/03/27 10:11:31;;;;;;;10.00;6.55;;;24.20;30.00;;;;;;2262412;55;21433;-66
2022/03/27 10:13:58;;;;;;;14.13;6.65;;;24.10;29.80;;;;;;2259003;56;21044;-65
2022/03/27 10:16:34;;;;;;;12.68;7.10;;;24.00;29.80;;;;;;2450612;55;21092;-66
2022/03/27 10:19:24;;;;;;;12.10;6.78;;;23.80;29.50;;;;;;2258963;56;20983;-65
2022/03/27 10:21:52;;;;;;;10.85;6.15;;;23.70;29.10;;;;;;2259353;55;20952;-66
2022/03/27 10:24:18;;;;;;;12.02;6.25;;;23.50;29.50;;;;;;2259061;55;21012;-66
2022/03/27 10:26:45;;;;;;;11.73;6.90;;;23.40;29.40;;;;;;2258345;56;20996;-66
2022/03/27 10:29:13;;;;;;;12.18;6.12;;;23.30;29.20;;;;;;2263295;56;21026;-65
2022/03/27 10:31:39;;;;;;;10.45;6.20;;;23.10;29.10;;;;;;2259126;55;20944;-66
2022/03/27 10:34:06;;;;;;;12.27;6.45;;;23.00;29.20;;;;;;2487270;55;21446;-65
2022/03/27 10:37:34;;;;;;;10.57;6.10;;;22.90;29.20;;;;;;2262791;56;21007;-66
2022/03/27 10:40:27;;;;;;;11.15;6.00;;;22.80;29.20;;;;;;2260954;55;21005;-66
2022/03/27 10:43:02;;;;;;;13.70;6.50;;;22.70;29.40;;;;;;2258670;55;21016;-67
2022/03/27 10:45:30;;;;;;;12.68;6.82;;;22.70;29.70;;;;;;2258665;55;21838;-65
2022/03/27 10:48:16;;;;;;;9.73;5.65;;;22.60;29.20;;;;;;2259081;55;21592;-65
2022/03/27 10:50:55;;;;;;;12.32;6.45;;;22.60;29.10;;;;;;2246114;56;21072;-65
2022/03/27 10:53:23;;;;;;;10.32;5.53;;;22.70;29.30;;;;;;2257159;56;20941;-65
2022/03/27 10:55:53;;;;;;;10.00;5.97;;;22.70;29.60;;;;;;2258416;55;20945;-65
2022/03/27 10:58:48;;;;;;;10.10;5.60;;;22.80;29.50;;;;;;2258377;56;20954;-66
2022/03/27 11:01:59;;;;;;;11.00;6.55;;;22.90;29.50;;;;;;2258913;55;21470;-67
2022/03/27 11:04:38;;;;;;;10.50;6.20;;;23.00;29.40;;;;;;2258838;55;21729;-66
2022/03/27 11:09:05;;;;;;;10.50;5.87;;;23.10;29.20;;;;;;2263312;55;21006;-65
2022/03/27 11:12:06;;;;;;;10.35;5.55;;;23.20;29.20;;;;;;2259493;55;20980;-65
2022/03/27 11:14:58;;;;;;;11.38;6.30;;;23.30;29.00;;;;;;2259096;56;20948;-66
2022/03/27 11:17:43;;;;;;;12.98;6.03;;;23.40;29.00;;;;;;2259257;55;21068;-66
2022/03/27 11:20:56;;;;;;;13.50;6.97;;;23.40;28.80;;;;;;2253826;56;21414;-65
2022/03/27 11:23:23;;;;;;;10.55;5.85;;;23.40;28.80;;;;;;2254746;56;20994;-67
2022/03/27 11:25:49;;;;;;;11.30;6.10;;;23.50;29.00;;;;;;2391771;55;20964;-65
2022/03/27 11:28:21;;;;;;;11.32;6.10;;;23.50;28.90;;;;;;2253914;56;20959;-65
2022/03/27 11:31:34;;;;;;;11.35;5.68;;;23.60;28.70;;;;;;2246584;57;20927;-65
2022/03/27 11:34:21;;;;;;;;;;;23.60;29.20;;;;;;2261666;56;21557;-65
2022/03/27 11:36:54;;;;;;;8.55;4.82;;;23.80;29.40;;;;;;2263445;56;20074;-65
2022/03/27 11:39:35;;;;;;;11.10;6.28;;;23.90;29.20;;;;;;2247261;56;21020;-67
2022/03/27 11:42:47;;;;;;;11.52;6.47;;;24.00;28.60;;;;;;2249548;56;21096;-66
2022/03/27 11:45:18;;;;;;;13.05;6.43;;;24.10;28.60;;;;;;2272916;55;20964;-66
2022/03/27 11:47:49;;;;;;;10.88;6.55;;;24.10;28.30;;;;;;2252595;56;20969;-66
2022/03/27 11:50:28;;;;;;;10.73;5.62;;;24.10;28.40;;;;;;2258999;56;21020;-66
2022/03/27 11:52:54;;;;;;;11.85;5.68;;;24.10;28.30;;;;;;2201600;57;20995;-65
2022/03/27 11:55:21;;;;;;;11.65;7.10;;;24.10;28.10;;;;;;2231579;57;20974;-67
2022/03/27 11:57:52;;;;;;;9.13;5.55;;;24.10;28.10;;;;;;2248801;56;21019;-68
2022/03/27 12:00:34;;;;;;;10.85;5.78;;;24.20;28.40;;;;;;2254289;56;20980;-68
2022/03/27 12:03:02;;;;;;;11.15;5.68;;;24.30;28.20;;;;;;2234056;57;21012;-66
2022/03/27 12:05:38;;;;;;;13.73;5.97;;;24.30;28.50;;;;;;2258731;56;20956;-67
2022/03/27 12:08:06;;;;;;;11.98;6.35;;;24.40;28.30;;;;;;2259730;56;20936;-66
2022/03/27 12:10:57;;;;;;;11.52;6.47;;;24.60;28.40;;;;;;2259419;55;21036;-65
2022/03/27 12:13:23;;;;;;;9.38;5.28;;;24.70;28.20;;;;;;2487527;55;21000;-68
2022/03/27 12:15:54;;;;;;;9.73;5.82;;;24.80;28.60;;;;;;2259235;55;20981;-67
2022/03/27 12:19:20;;;;;;;11.23;6.90;;;24.90;28.40;;;;;;2264758;55;21551;-67
2022/03/27 12:21:48;;;;;;;11.00;6.80;;;25.10;28.20;;;;;;2259294;55;20965;-66
2022/03/27 12:24:18;;;;;;;9.95;5.50;;;25.30;28.20;;;;;;2259442;55;20956;-68
2022/03/27 12:29:43;;;;;;;10.68;6.15;;;25.50;28.20;;;;;;2233824;56;20976;-66
2022/03/27 12:32:14;;;;;;;10.43;6.15;;;25.60;28.10;;;;;;2258391;56;20964;-66
2022/03/27 12:34:50;;;;;;;10.45;6.07;;;25.70;27.90;;;;;;2259433;56;20967;-67
2022/03/27 12:37:20;;;;;;;8.38;4.93;;;25.80;27.80;;;;;;2259193;56;21560;-66
2022/03/27 12:40:08;;;;;;;11.43;6.37;;;26.00;28.10;;;;;;2259402;56;20973;-66
2022/03/27 12:42:48;;;;;;;11.93;6.55;;;26.10;27.80;;;;;;2259320;56;21020;-66
2022/03/27 12:46:22;;;;;;;11.32;6.60;;;26.20;27.40;;;;;;2487614;55;20977;-67
2022/03/27 12:49:05;;;;;;;10.00;6.10;;;26.30;27.50;;;;;;2258959;56;21993;-67
2022/03/27 12:51:32;;;;;;;10.18;6.18;;;26.30;27.40;;;;;;2254179;57;21069;-66
2022/03/27 12:54:05;;;;;;;9.63;5.62;;;26.30;27.40;;;;;;2307057;55;20940;-66
2022/03/27 12:56:32;;;;;;;11.27;6.22;;;26.40;27.40;;;;;;2259697;56;20985;-66
2022/03/27 12:58:58;;;;;;;10.38;6.15;;;26.40;27.30;;;;;;2234177;56;20967;-66
2022/03/27 13:01:24;;;;;;;10.85;6.57;;;26.40;27.20;;;;;;2259312;56;21003;-66
2022/03/27 13:04:07;;;;;;;13.18;6.90;;;26.50;27.10;;;;;;2259468;56;21481;-66
2022/03/27 13:06:36;;;;;;;;;;;26.50;26.70;;;;;;2263709;56;21477;-66
2022/03/27 13:09:04;;;;;;;11.68;6.07;;;26.60;27.20;;;;;;2261717;56;20070;-66
2022/03/27 13:11:30;;;;;;;11.45;6.37;;;26.60;26.80;;;;;;2257288;55;21478;-66
2022/03/27 13:14:00;;;;;;;9.98;5.85;;;26.60;26.50;;;;;;2257470;56;20949;-66
2022/03/27 13:16:31;;;;;;;12.68;6.30;;;26.60;26.40;;;;;;2259101;56;21016;-66
2022/03/27 13:19:11;;;;;;;7.47;4.85;;;26.60;26.40;;;;;;2249477;56;21957;-66